sensor_id;sensor_type;location;lat;lon;timestamp;P1;durP1;ratioP1;P2;durP2;ratioP2
16845;SDS011;8539;53.188;8.696;2022-10-22T00:00:33;28.23;;;19.00;;
16845;SDS011;8539;53.188;8.696;2022-10-22T00:03:09;33.13;;;17.52;;
16845;SDS011;8539;53.188;8.696;2022-10-22T00:05:35;23.77;;;16.75;;
16845;SDS011;8539;53.188;8.696;2022-10-22T00:08:07;24.90;;;15.75;;
16845;SDS011;8539;53.188;8.696;2022-10-22T00:10:35;27.05;;;15.32;;
16845;SDS011;8539;53.188;8.696;2022-10-22T00:13:03;21.35;;;15.25;;
16845;SDS011;8539;53.188;8.696;2022-10-22T00:15:30;22.10;;;14.82;;
16845;SDS011;8539;53.188;8.696;2022-10-22T00:18:01;22.70;;;15.88;;
16845;SDS011;8539;53.188;8.696;2022-10-22T00:20:28;27.88;;;18.35;;
16845;SDS011;8539;53.188;8.696;2022-10-22T00:22:54;28.05;;;16.45;;
16845;SDS011;8539;53.188;8.696;2022-10-22T00:25:20;27.83;;;16.80;;
16845;SDS011;8539;53.188;8.696;2022-10-22T00:28:02;26.63;;;16.52;;
16845;SDS011;8539;53.188;8.696;2022-10-22T00:30:29;21.20;;;14.40;;
16845;SDS011;8539;53.188;8.696;2022-10-22T00:32:55;25.50;;;14.73;;
16845;SDS011;8539;53.188;8.696;2022-10-22T00:35:22;21.08;;;16.10;;
16845;SDS011;8539;53.188;8.696;2022-10-22T00:37:48;20.35;;;13.18;;
16845;SDS011;8539;53.188;8.696;2022-10-22T00:40:15;19.83;;;13.38;;
16845;SDS011;8539;53.188;8.696;2022-10-22T00:42:41;26.50;;;13.90;;
16845;SDS011;8539;53.188;8.696;2022-10-22T00:47:41;26.13;;;17.80;;
16845;SDS011;8539;53.188;8.696;2022-10-22T00:50:54;21.92;;;15.32;;
16845;SDS011;8539;53.188;8.696;2022-10-22T00:53:01;24.50;;;16.38;;
16845;SDS011;8539;53.188;8.696;2022-10-22T00:55:31;29.00;;;18.10;;
16845;SDS011;8539;53.188;8.696;2022-10-22T00:57:57;27.23;;;17.00;;
16845;SDS011;8539;53.188;8.696;2022-10-22T01:03:49;23.50;;;16.08;;
16845;SDS011;8539;53.188;8.696;2022-10-22T01:06:18;26.42;;;16.63;;
16845;SDS011;8539;53.188;8.696;2022-10-22T01:14:51;27.63;;;17.55;;
16845;SDS011;8539;53.188;8.696;2022-10-22T01:23:12;22.55;;;15.55;;
16845;SDS011;8539;53.188;8.696;2022-10-22T01:25:52;19.88;;;14.45;;
16845;SDS011;8539;53.188;8.696;2022-10-22T01:28:50;18.98;;;13.48;;
16845;SDS011;8539;53.188;8.696;2022-10-22T01:31:34;22.15;;;13.70;;
16845;SDS011;8539;53.188;8.696;2022-10-22T01:34:05;25.38;;;17.00;;
16845;SDS011;8539;53.188;8.696;2022-10-22T01:36:35;24.08;;;16.08;;
16845;SDS011;8539;53.188;8.696;2022-10-22T01:39:03;19.73;;;14.10;;
16845;SDS011;8539;53.188;8.696;2022-10-22T01:41:32;21.17;;;14.63;;
16845;SDS011;8539;53.188;8.696;2022-10-22T01:44:00;27.23;;;17.30;;
16845;SDS011;8539;53.188;8.696;2022-10-22T01:46:26;25.05;;;15.88;;
16845;SDS011;8539;53.188;8.696;2022-10-22T01:52:38;25.23;;;16.53;;
16845;SDS011;8539;53.188;8.696;2022-10-22T01:54:40;20.95;;;14.25;;
16845;SDS011;8539;53.188;8.696;2022-10-22T01:57:22;26.85;;;15.75;;
16845;SDS011;8539;53.188;8.696;2022-10-22T02:00:16;29.73;;;16.08;;
16845;SDS011;8539;53.188;8.696;2022-10-22T02:02:48;23.67;;;15.15;;
16845;SDS011;8539;53.188;8.696;2022-10-22T02:05:20;20.45;;;13.77;;
16845;SDS011;8539;53.188;8.696;2022-10-22T02:07:57;21.98;;;14.07;;
16845;SDS011;8539;53.188;8.696;2022-10-22T02:10:33;23.90;;;12.73;;
16845;SDS011;8539;53.188;8.696;2022-10-22T02:13:03;19.23;;;13.68;;
16845;SDS011;8539;53.188;8.696;2022-10-22T02:15:33;24.85;;;13.80;;
16845;SDS011;8539;53.188;8.696;2022-10-22T02:18:01;31.17;;;14.23;;
16845;SDS011;8539;53.188;8.696;2022-10-22T02:20:32;23.67;;;15.63;;
16845;SDS011;8539;53.188;8.696;2022-10-22T02:23:00;28.15;;;17.73;;
16845;SDS011;8539;53.188;8.696;2022-10-22T02:25:28;26.65;;;16.58;;
16845;SDS011;8539;53.188;8.696;2022-10-22T02:30:30;25.55;;;14.10;;
16845;SDS011;8539;53.188;8.696;2022-10-22T02:33:00;19.30;;;13.60;;
16845;SDS011;8539;53.188;8.696;2022-10-22T02:35:38;18.83;;;13.98;;
16845;SDS011;8539;53.188;8.696;2022-10-22T02:38:07;22.77;;;14.43;;
16845;SDS011;8539;53.188;8.696;2022-10-22T02:40:52;19.15;;;12.30;;
16845;SDS011;8539;53.188;8.696;2022-10-22T02:43:19;21.92;;;15.95;;
16845;SDS011;8539;53.188;8.696;2022-10-22T02:48:56;19.15;;;13.95;;
16845;SDS011;8539;53.188;8.696;2022-10-22T02:51:31;24.70;;;16.30;;
16845;SDS011;8539;53.188;8.696;2022-10-22T02:53:58;20.67;;;14.63;;
16845;SDS011;8539;53.188;8.696;2022-10-22T02:56:24;21.35;;;15.40;;
16845;SDS011;8539;53.188;8.696;2022-10-22T02:58:52;26.05;;;15.93;;
16845;SDS011;8539;53.188;8.696;2022-10-22T03:01:18;25.48;;;16.63;;
16845;SDS011;8539;53.188;8.696;2022-10-22T03:03:45;20.98;;;15.50;;
16845;SDS011;8539;53.188;8.696;2022-10-22T03:06:12;25.20;;;15.57;;
16845;SDS011;8539;53.188;8.696;2022-10-22T03:11:43;22.15;;;15.05;;
16845;SDS011;8539;53.188;8.696;2022-10-22T03:14:17;21.20;;;16.30;;
16845;SDS011;8539;53.188;8.696;2022-10-22T03:16:49;28.02;;;15.70;;
16845;SDS011;8539;53.188;8.696;2022-10-22T03:22:09;28.42;;;16.50;;
16845;SDS011;8539;53.188;8.696;2022-10-22T03:24:41;17.52;;;14.57;;
16845;SDS011;8539;53.188;8.696;2022-10-22T03:27:09;25.52;;;15.70;;
16845;SDS011;8539;53.188;8.696;2022-10-22T03:29:38;19.13;;;14.90;;
16845;SDS011;8539;53.188;8.696;2022-10-22T03:32:06;19.20;;;14.25;;
16845;SDS011;8539;53.188;8.696;2022-10-22T03:34:32;19.80;;;13.80;;
16845;SDS011;8539;53.188;8.696;2022-10-22T03:40:28;18.73;;;13.15;;
16845;SDS011;8539;53.188;8.696;2022-10-22T03:42:55;21.20;;;16.30;;
16845;SDS011;8539;53.188;8.696;2022-10-22T03:45:21;21.15;;;15.63;;
16845;SDS011;8539;53.188;8.696;2022-10-22T03:47:48;20.25;;;14.55;;
16845;SDS011;8539;53.188;8.696;2022-10-22T03:50:14;25.17;;;16.40;;
16845;SDS011;8539;53.188;8.696;2022-10-22T03:52:41;21.83;;;14.95;;
16845;SDS011;8539;53.188;8.696;2022-10-22T03:55:08;22.52;;;15.75;;
16845;SDS011;8539;53.188;8.696;2022-10-22T03:57:36;21.00;;;14.32;;
16845;SDS011;8539;53.188;8.696;2022-10-22T04:00:03;25.58;;;16.77;;
16845;SDS011;8539;53.188;8.696;2022-10-22T04:02:30;24.33;;;16.60;;
16845;SDS011;8539;53.188;8.696;2022-10-22T04:04:57;26.55;;;17.73;;
16845;SDS011;8539;53.188;8.696;2022-10-22T04:07:23;21.13;;;16.48;;
16845;SDS011;8539;53.188;8.696;2022-10-22T04:09:49;31.55;;;17.15;;
16845;SDS011;8539;53.188;8.696;2022-10-22T04:12:16;28.90;;;17.33;;
16845;SDS011;8539;53.188;8.696;2022-10-22T04:14:43;23.23;;;16.48;;
16845;SDS011;8539;53.188;8.696;2022-10-22T04:17:09;21.85;;;14.93;;
16845;SDS011;8539;53.188;8.696;2022-10-22T04:19:35;22.70;;;15.77;;
16845;SDS011;8539;53.188;8.696;2022-10-22T04:22:02;21.80;;;16.27;;
16845;SDS011;8539;53.188;8.696;2022-10-22T04:24:29;21.65;;;17.17;;
16845;SDS011;8539;53.188;8.696;2022-10-22T04:26:57;22.63;;;15.35;;
16845;SDS011;8539;53.188;8.696;2022-10-22T04:29:23;25.63;;;16.38;;
16845;SDS011;8539;53.188;8.696;2022-10-22T04:31:50;21.67;;;16.00;;
16845;SDS011;8539;53.188;8.696;2022-10-22T04:37:19;24.63;;;16.55;;
16845;SDS011;8539;53.188;8.696;2022-10-22T04:39:45;22.85;;;16.30;;
16845;SDS011;8539;53.188;8.696;2022-10-22T04:42:12;19.13;;;14.85;;
16845;SDS011;8539;53.188;8.696;2022-10-22T04:44:42;22.70;;;15.77;;
16845;SDS011;8539;53.188;8.696;2022-10-22T04:47:08;22.90;;;15.85;;
16845;SDS011;8539;53.188;8.696;2022-10-22T04:49:35;23.23;;;17.08;;
16845;SDS011;8539;53.188;8.696;2022-10-22T04:52:01;19.50;;;15.57;;
16845;SDS011;8539;53.188;8.696;2022-10-22T04:54:28;28.17;;;17.83;;
16845;SDS011;8539;53.188;8.696;2022-10-22T04:59:41;20.50;;;15.10;;
16845;SDS011;8539;53.188;8.696;2022-10-22T05:02:07;23.70;;;16.75;;
16845;SDS011;8539;53.188;8.696;2022-10-22T05:04:34;22.85;;;15.32;;
16845;SDS011;8539;53.188;8.696;2022-10-22T05:07:00;24.95;;;16.23;;
16845;SDS011;8539;53.188;8.696;2022-10-22T05:09:27;21.33;;;14.50;;
16845;SDS011;8539;53.188;8.696;2022-10-22T05:11:53;22.65;;;16.17;;
16845;SDS011;8539;53.188;8.696;2022-10-22T05:14:21;22.10;;;15.95;;
16845;SDS011;8539;53.188;8.696;2022-10-22T05:16:49;19.40;;;14.45;;
16845;SDS011;8539;53.188;8.696;2022-10-22T05:19:27;18.33;;;14.50;;
16845;SDS011;8539;53.188;8.696;2022-10-22T05:21:56;22.27;;;15.60;;
16845;SDS011;8539;53.188;8.696;2022-10-22T05:24:24;22.63;;;14.65;;
16845;SDS011;8539;53.188;8.696;2022-10-22T05:26:53;18.50;;;12.65;;
16845;SDS011;8539;53.188;8.696;2022-10-22T05:29:20;14.68;;;12.45;;
16845;SDS011;8539;53.188;8.696;2022-10-22T05:31:47;16.67;;;11.95;;
16845;SDS011;8539;53.188;8.696;2022-10-22T05:57:31;33.13;;;15.32;;
16845;SDS011;8539;53.188;8.696;2022-10-22T05:59:58;23.70;;;15.32;;
16845;SDS011;8539;53.188;8.696;2022-10-22T06:02:33;25.95;;;15.95;;
16845;SDS011;8539;53.188;8.696;2022-10-22T06:05:00;23.17;;;16.10;;
16845;SDS011;8539;53.188;8.696;2022-10-22T06:07:26;25.50;;;15.40;;
16845;SDS011;8539;53.188;8.696;2022-10-22T06:09:56;35.50;;;18.92;;
16845;SDS011;8539;53.188;8.696;2022-10-22T06:12:32;27.65;;;19.58;;
16845;SDS011;8539;53.188;8.696;2022-10-22T06:15:06;25.80;;;18.87;;
16845;SDS011;8539;53.188;8.696;2022-10-22T06:17:34;32.45;;;18.98;;
16845;SDS011;8539;53.188;8.696;2022-10-22T06:20:00;32.60;;;20.38;;
16845;SDS011;8539;53.188;8.696;2022-10-22T06:22:27;27.73;;;20.15;;
16845;SDS011;8539;53.188;8.696;2022-10-22T06:31:23;29.23;;;17.83;;
16845;SDS011;8539;53.188;8.696;2022-10-22T06:33:51;23.98;;;15.95;;
16845;SDS011;8539;53.188;8.696;2022-10-22T06:36:36;27.80;;;17.83;;
16845;SDS011;8539;53.188;8.696;2022-10-22T06:43:04;26.10;;;18.63;;
16845;SDS011;8539;53.188;8.696;2022-10-22T06:45:31;25.40;;;17.63;;
16845;SDS011;8539;53.188;8.696;2022-10-22T06:47:58;27.25;;;18.17;;
16845;SDS011;8539;53.188;8.696;2022-10-22T06:50:24;31.27;;;19.55;;
16845;SDS011;8539;53.188;8.696;2022-10-22T06:52:50;27.65;;;18.88;;
16845;SDS011;8539;53.188;8.696;2022-10-22T06:55:17;25.10;;;17.38;;
16845;SDS011;8539;53.188;8.696;2022-10-22T06:57:43;29.25;;;18.90;;
16845;SDS011;8539;53.188;8.696;2022-10-22T07:00:09;33.15;;;20.27;;
16845;SDS011;8539;53.188;8.696;2022-10-22T07:02:36;30.73;;;19.35;;
16845;SDS011;8539;53.188;8.696;2022-10-22T07:05:03;28.63;;;19.38;;
16845;SDS011;8539;53.188;8.696;2022-10-22T07:07:30;29.42;;;19.05;;
16845;SDS011;8539;53.188;8.696;2022-10-22T07:09:56;31.27;;;19.58;;
16845;SDS011;8539;53.188;8.696;2022-10-22T07:15:10;29.58;;;19.77;;
16845;SDS011;8539;53.188;8.696;2022-10-22T07:17:37;28.10;;;18.10;;
16845;SDS011;8539;53.188;8.696;2022-10-22T07:20:03;26.55;;;18.30;;
16845;SDS011;8539;53.188;8.696;2022-10-22T07:22:30;23.20;;;16.17;;
16845;SDS011;8539;53.188;8.696;2022-10-22T07:24:57;25.25;;;16.70;;
16845;SDS011;8539;53.188;8.696;2022-10-22T07:27:23;30.40;;;18.52;;
16845;SDS011;8539;53.188;8.696;2022-10-22T07:29:50;28.35;;;19.02;;
16845;SDS011;8539;53.188;8.696;2022-10-22T07:32:16;26.75;;;18.08;;
16845;SDS011;8539;53.188;8.696;2022-10-22T07:34:43;27.90;;;18.67;;
16845;SDS011;8539;53.188;8.696;2022-10-22T07:37:09;23.15;;;17.27;;
16845;SDS011;8539;53.188;8.696;2022-10-22T07:39:35;22.95;;;17.27;;
16845;SDS011;8539;53.188;8.696;2022-10-22T07:42:03;21.92;;;15.60;;
16845;SDS011;8539;53.188;8.696;2022-10-22T07:44:30;22.80;;;15.02;;
16845;SDS011;8539;53.188;8.696;2022-10-22T07:46:56;22.30;;;14.85;;
16845;SDS011;8539;53.188;8.696;2022-10-22T07:49:22;21.27;;;13.75;;
16845;SDS011;8539;53.188;8.696;2022-10-22T07:51:49;24.52;;;14.25;;
16845;SDS011;8539;53.188;8.696;2022-10-22T07:54:15;20.48;;;14.00;;
16845;SDS011;8539;53.188;8.696;2022-10-22T07:56:43;16.58;;;13.82;;
16845;SDS011;8539;53.188;8.696;2022-10-22T07:59:13;24.75;;;14.05;;
16845;SDS011;8539;53.188;8.696;2022-10-22T08:01:40;19.75;;;12.25;;
16845;SDS011;8539;53.188;8.696;2022-10-22T08:04:07;17.60;;;13.80;;
16845;SDS011;8539;53.188;8.696;2022-10-22T08:06:36;20.23;;;12.88;;
16845;SDS011;8539;53.188;8.696;2022-10-22T08:09:03;17.67;;;12.27;;
16845;SDS011;8539;53.188;8.696;2022-10-22T08:11:29;16.00;;;12.05;;
16845;SDS011;8539;53.188;8.696;2022-10-22T08:13:58;17.15;;;12.27;;
16845;SDS011;8539;53.188;8.696;2022-10-22T08:16:25;16.23;;;12.82;;
16845;SDS011;8539;53.188;8.696;2022-10-22T08:18:51;16.42;;;12.95;;
16845;SDS011;8539;53.188;8.696;2022-10-22T08:21:17;19.92;;;12.85;;
16845;SDS011;8539;53.188;8.696;2022-10-22T08:23:44;19.50;;;13.43;;
16845;SDS011;8539;53.188;8.696;2022-10-22T08:26:10;16.65;;;12.77;;
16845;SDS011;8539;53.188;8.696;2022-10-22T08:28:36;25.23;;;12.30;;
16845;SDS011;8539;53.188;8.696;2022-10-22T08:31:04;21.33;;;13.98;;
16845;SDS011;8539;53.188;8.696;2022-10-22T08:33:32;19.33;;;14.02;;
16845;SDS011;8539;53.188;8.696;2022-10-22T08:35:58;22.02;;;14.13;;
16845;SDS011;8539;53.188;8.696;2022-10-22T08:38:25;23.90;;;14.77;;
16845;SDS011;8539;53.188;8.696;2022-10-22T08:40:52;17.15;;;13.02;;
16845;SDS011;8539;53.188;8.696;2022-10-22T08:51:06;18.83;;;10.68;;
16845;SDS011;8539;53.188;8.696;2022-10-22T08:53:44;14.73;;;9.68;;
16845;SDS011;8539;53.188;8.696;2022-10-22T08:56:26;12.82;;;8.23;;
16845;SDS011;8539;53.188;8.696;2022-10-22T08:58:58;14.23;;;7.85;;
16845;SDS011;8539;53.188;8.696;2022-10-22T09:01:33;10.60;;;8.20;;
16845;SDS011;8539;53.188;8.696;2022-10-22T09:06:51;14.95;;;7.57;;
16845;SDS011;8539;53.188;8.696;2022-10-22T09:09:18;10.77;;;7.75;;
16845;SDS011;8539;53.188;8.696;2022-10-22T09:11:47;11.20;;;7.60;;
16845;SDS011;8539;53.188;8.696;2022-10-22T09:14:20;12.05;;;6.70;;
16845;SDS011;8539;53.188;8.696;2022-10-22T09:16:54;12.35;;;6.55;;
16845;SDS011;8539;53.188;8.696;2022-10-22T09:22:37;9.52;;;5.80;;
16845;SDS011;8539;53.188;8.696;2022-10-22T09:27:45;10.00;;;6.35;;
16845;SDS011;8539;53.188;8.696;2022-10-22T09:30:15;11.70;;;5.63;;
16845;SDS011;8539;53.188;8.696;2022-10-22T09:32:44;10.43;;;5.55;;
16845;SDS011;8539;53.188;8.696;2022-10-22T09:35:11;12.43;;;5.13;;
16845;SDS011;8539;53.188;8.696;2022-10-22T09:37:49;10.73;;;5.28;;
16845;SDS011;8539;53.188;8.696;2022-10-22T09:40:17;9.93;;;6.40;;
16845;SDS011;8539;53.188;8.696;2022-10-22T09:42:44;8.65;;;5.13;;
16845;SDS011;8539;53.188;8.696;2022-10-22T09:45:18;9.45;;;4.55;;
16845;SDS011;8539;53.188;8.696;2022-10-22T09:47:48;13.75;;;4.75;;
16845;SDS011;8539;53.188;8.696;2022-10-22T09:53:22;8.40;;;4.50;;
16845;SDS011;8539;53.188;8.696;2022-10-22T09:55:52;13.00;;;5.00;;
16845;SDS011;8539;53.188;8.696;2022-10-22T09:58:22;8.93;;;5.05;;
16845;SDS011;8539;53.188;8.696;2022-10-22T10:00:58;7.55;;;5.00;;
16845;SDS011;8539;53.188;8.696;2022-10-22T10:03:29;12.10;;;5.35;;
16845;SDS011;8539;53.188;8.696;2022-10-22T10:05:58;11.23;;;5.00;;
16845;SDS011;8539;53.188;8.696;2022-10-22T10:08:28;10.02;;;5.10;;
16845;SDS011;8539;53.188;8.696;2022-10-22T10:16:06;8.90;;;5.63;;
16845;SDS011;8539;53.188;8.696;2022-10-22T10:28:27;13.98;;;7.60;;
16845;SDS011;8539;53.188;8.696;2022-10-22T10:31:32;10.18;;;5.78;;
16845;SDS011;8539;53.188;8.696;2022-10-22T10:34:31;14.90;;;5.95;;
16845;SDS011;8539;53.188;8.696;2022-10-22T10:40:06;12.60;;;6.70;;
16845;SDS011;8539;53.188;8.696;2022-10-22T10:54:20;8.52;;;5.13;;
16845;SDS011;8539;53.188;8.696;2022-10-22T11:00:41;16.65;;;5.53;;
16845;SDS011;8539;53.188;8.696;2022-10-22T11:24:32;9.05;;;3.88;;
16845;SDS011;8539;53.188;8.696;2022-10-22T11:30:35;7.80;;;3.92;;
16845;SDS011;8539;53.188;8.696;2022-10-22T11:36:53;11.52;;;3.70;;
16845;SDS011;8539;53.188;8.696;2022-10-22T11:39:49;9.98;;;3.25;;
16845;SDS011;8539;53.188;8.696;2022-10-22T11:46:00;14.50;;;3.35;;
16845;SDS011;8539;53.188;8.696;2022-10-22T11:49:23;12.98;;;3.28;;
16845;SDS011;8539;53.188;8.696;2022-10-22T11:52:12;8.27;;;2.85;;
16845;SDS011;8539;53.188;8.696;2022-10-22T11:55:40;13.40;;;3.30;;
16845;SDS011;8539;53.188;8.696;2022-10-22T11:58:40;6.40;;;2.58;;
16845;SDS011;8539;53.188;8.696;2022-10-22T12:08:51;18.25;;;3.45;;
16845;SDS011;8539;53.188;8.696;2022-10-22T12:16:46;8.38;;;3.00;;
16845;SDS011;8539;53.188;8.696;2022-10-22T12:21:48;9.45;;;3.72;;
16845;SDS011;8539;53.188;8.696;2022-10-22T12:24:37;8.88;;;3.33;;
16845;SDS011;8539;53.188;8.696;2022-10-22T12:27:20;7.95;;;3.15;;
16845;SDS011;8539;53.188;8.696;2022-10-22T12:29:47;6.97;;;3.25;;
16845;SDS011;8539;53.188;8.696;2022-10-22T12:32:14;10.52;;;4.05;;
16845;SDS011;8539;53.188;8.696;2022-10-22T12:34:45;6.90;;;3.15;;
16845;SDS011;8539;53.188;8.696;2022-10-22T12:37:13;7.45;;;2.67;;
16845;SDS011;8539;53.188;8.696;2022-10-22T12:39:43;10.02;;;3.47;;
16845;SDS011;8539;53.188;8.696;2022-10-22T12:42:14;11.77;;;2.90;;
16845;SDS011;8539;53.188;8.696;2022-10-22T12:44:45;8.80;;;3.13;;
16845;SDS011;8539;53.188;8.696;2022-10-22T12:47:15;8.68;;;3.97;;
16845;SDS011;8539;53.188;8.696;2022-10-22T12:49:45;8.13;;;3.08;;
16845;SDS011;8539;53.188;8.696;2022-10-22T12:52:17;6.10;;;3.13;;
16845;SDS011;8539;53.188;8.696;2022-10-22T12:54:47;13.93;;;3.70;;
16845;SDS011;8539;53.188;8.696;2022-10-22T12:57:17;11.32;;;3.58;;
16845;SDS011;8539;53.188;8.696;2022-10-22T12:59:45;11.38;;;3.95;;
16845;SDS011;8539;53.188;8.696;2022-10-22T13:02:21;11.20;;;3.00;;
16845;SDS011;8539;53.188;8.696;2022-10-22T13:07:39;4.75;;;3.08;;
16845;SDS011;8539;53.188;8.696;2022-10-22T13:10:16;6.65;;;2.80;;
16845;SDS011;8539;53.188;8.696;2022-10-22T13:12:48;10.85;;;3.90;;
16845;SDS011;8539;53.188;8.696;2022-10-22T13:15:19;11.52;;;3.47;;
16845;SDS011;8539;53.188;8.696;2022-10-22T13:18:37;8.30;;;3.15;;
16845;SDS011;8539;53.188;8.696;2022-10-22T13:20:58;16.55;;;5.28;;
16845;SDS011;8539;53.188;8.696;2022-10-22T13:23:28;7.35;;;3.25;;
16845;SDS011;8539;53.188;8.696;2022-10-22T13:26:08;7.45;;;3.00;;
16845;SDS011;8539;53.188;8.696;2022-10-22T13:28:38;9.32;;;3.50;;
16845;SDS011;8539;53.188;8.696;2022-10-22T13:31:08;10.43;;;3.50;;
16845;SDS011;8539;53.188;8.696;2022-10-22T13:33:43;18.70;;;4.00;;
16845;SDS011;8539;53.188;8.696;2022-10-22T13:36:12;8.25;;;3.00;;
16845;SDS011;8539;53.188;8.696;2022-10-22T13:38:41;11.40;;;3.00;;
16845;SDS011;8539;53.188;8.696;2022-10-22T13:41:18;10.85;;;3.72;;
16845;SDS011;8539;53.188;8.696;2022-10-22T13:43:52;9.77;;;2.88;;
16845;SDS011;8539;53.188;8.696;2022-10-22T13:46:20;6.20;;;2.47;;
16845;SDS011;8539;53.188;8.696;2022-10-22T13:48:48;6.50;;;3.45;;
16845;SDS011;8539;53.188;8.696;2022-10-22T13:51:18;4.13;;;2.55;;
16845;SDS011;8539;53.188;8.696;2022-10-22T13:53:48;7.07;;;2.97;;
16845;SDS011;8539;53.188;8.696;2022-10-22T13:56:18;10.95;;;3.13;;
16845;SDS011;8539;53.188;8.696;2022-10-22T13:58:46;7.75;;;2.83;;
16845;SDS011;8539;53.188;8.696;2022-10-22T14:03:46;11.43;;;2.70;;
16845;SDS011;8539;53.188;8.696;2022-10-22T14:06:15;9.60;;;3.17;;
16845;SDS011;8539;53.188;8.696;2022-10-22T14:08:45;9.10;;;2.97;;
16845;SDS011;8539;53.188;8.696;2022-10-22T14:11:15;10.40;;;3.08;;
16845;SDS011;8539;53.188;8.696;2022-10-22T14:13:42;11.02;;;3.95;;
16845;SDS011;8539;53.188;8.696;2022-10-22T14:16:13;12.02;;;2.83;;
16845;SDS011;8539;53.188;8.696;2022-10-22T14:18:43;9.70;;;3.33;;
16845;SDS011;8539;53.188;8.696;2022-10-22T14:21:09;5.43;;;2.50;;
16845;SDS011;8539;53.188;8.696;2022-10-22T14:23:39;9.02;;;3.30;;
16845;SDS011;8539;53.188;8.696;2022-10-22T14:26:06;6.05;;;2.55;;
16845;SDS011;8539;53.188;8.696;2022-10-22T14:28:45;6.18;;;2.72;;
16845;SDS011;8539;53.188;8.696;2022-10-22T14:31:12;6.63;;;3.17;;
16845;SDS011;8539;53.188;8.696;2022-10-22T14:33:39;8.70;;;3.42;;
16845;SDS011;8539;53.188;8.696;2022-10-22T14:36:06;6.55;;;2.85;;
16845;SDS011;8539;53.188;8.696;2022-10-22T14:38:34;6.78;;;3.65;;
16845;SDS011;8539;53.188;8.696;2022-10-22T14:41:00;5.47;;;3.70;;
16845;SDS011;8539;53.188;8.696;2022-10-22T14:43:27;7.57;;;3.22;;
16845;SDS011;8539;53.188;8.696;2022-10-22T14:45:55;10.02;;;3.83;;
16845;SDS011;8539;53.188;8.696;2022-10-22T14:48:22;8.32;;;3.45;;
16845;SDS011;8539;53.188;8.696;2022-10-22T14:50:49;9.82;;;3.75;;
16845;SDS011;8539;53.188;8.696;2022-10-22T14:53:16;9.00;;;4.28;;
16845;SDS011;8539;53.188;8.696;2022-10-22T14:55:42;13.07;;;3.60;;
16845;SDS011;8539;53.188;8.696;2022-10-22T14:58:10;8.57;;;3.60;;
16845;SDS011;8539;53.188;8.696;2022-10-22T15:00:37;7.93;;;4.60;;
16845;SDS011;8539;53.188;8.696;2022-10-22T15:03:05;8.02;;;3.75;;
16845;SDS011;8539;53.188;8.696;2022-10-22T15:05:31;8.90;;;4.10;;
16845;SDS011;8539;53.188;8.696;2022-10-22T15:07:58;6.80;;;3.42;;
16845;SDS011;8539;53.188;8.696;2022-10-22T15:10:25;13.02;;;4.07;;
16845;SDS011;8539;53.188;8.696;2022-10-22T15:12:52;5.45;;;2.72;;
16845;SDS011;8539;53.188;8.696;2022-10-22T15:15:18;5.93;;;3.35;;
16845;SDS011;8539;53.188;8.696;2022-10-22T15:17:44;6.57;;;3.60;;
16845;SDS011;8539;53.188;8.696;2022-10-22T15:20:11;8.07;;;3.47;;
16845;SDS011;8539;53.188;8.696;2022-10-22T15:22:37;9.10;;;3.38;;
16845;SDS011;8539;53.188;8.696;2022-10-22T15:25:04;9.32;;;3.10;;
16845;SDS011;8539;53.188;8.696;2022-10-22T15:27:32;8.32;;;3.25;;
16845;SDS011;8539;53.188;8.696;2022-10-22T15:29:58;7.30;;;3.35;;
16845;SDS011;8539;53.188;8.696;2022-10-22T15:32:25;8.90;;;3.45;;
16845;SDS011;8539;53.188;8.696;2022-10-22T15:34:53;5.35;;;3.45;;
16845;SDS011;8539;53.188;8.696;2022-10-22T15:37:20;14.60;;;3.47;;
16845;SDS011;8539;53.188;8.696;2022-10-22T15:39:46;6.25;;;3.92;;
16845;SDS011;8539;53.188;8.696;2022-10-22T15:42:13;5.85;;;3.80;;
16845;SDS011;8539;53.188;8.696;2022-10-22T15:44:39;4.47;;;3.72;;
16845;SDS011;8539;53.188;8.696;2022-10-22T15:47:05;6.07;;;4.78;;
16845;SDS011;8539;53.188;8.696;2022-10-22T15:49:33;7.63;;;4.53;;
16845;SDS011;8539;53.188;8.696;2022-10-22T15:52:00;17.58;;;4.63;;
16845;SDS011;8539;53.188;8.696;2022-10-22T15:54:27;10.65;;;4.45;;
16845;SDS011;8539;53.188;8.696;2022-10-22T15:56:55;7.38;;;4.75;;
16845;SDS011;8539;53.188;8.696;2022-10-22T15:59:22;7.85;;;3.78;;
16845;SDS011;8539;53.188;8.696;2022-10-22T16:01:48;12.48;;;4.65;;
16845;SDS011;8539;53.188;8.696;2022-10-22T16:04:15;8.90;;;4.00;;
16845;SDS011;8539;53.188;8.696;2022-10-22T16:06:46;7.80;;;4.40;;
16845;SDS011;8539;53.188;8.696;2022-10-22T16:09:17;11.55;;;4.13;;
16845;SDS011;8539;53.188;8.696;2022-10-22T16:11:48;8.57;;;5.13;;
16845;SDS011;8539;53.188;8.696;2022-10-22T16:14:15;7.50;;;4.10;;
16845;SDS011;8539;53.188;8.696;2022-10-22T16:16:43;13.23;;;5.55;;
16845;SDS011;8539;53.188;8.696;2022-10-22T16:19:11;8.35;;;5.30;;
16845;SDS011;8539;53.188;8.696;2022-10-22T16:21:38;12.68;;;5.90;;
16845;SDS011;8539;53.188;8.696;2022-10-22T16:24:06;10.52;;;4.65;;
16845;SDS011;8539;53.188;8.696;2022-10-22T16:26:33;10.05;;;4.50;;
16845;SDS011;8539;53.188;8.696;2022-10-22T16:29:00;12.57;;;4.57;;
16845;SDS011;8539;53.188;8.696;2022-10-22T16:31:26;14.02;;;5.07;;
16845;SDS011;8539;53.188;8.696;2022-10-22T16:33:52;8.25;;;5.22;;
16845;SDS011;8539;53.188;8.696;2022-10-22T16:36:19;13.30;;;4.95;;
16845;SDS011;8539;53.188;8.696;2022-10-22T16:38:46;8.32;;;4.43;;
16845;SDS011;8539;53.188;8.696;2022-10-22T16:41:13;14.95;;;5.60;;
16845;SDS011;8539;53.188;8.696;2022-10-22T16:43:41;9.40;;;5.57;;
16845;SDS011;8539;53.188;8.696;2022-10-22T16:46:15;8.57;;;5.05;;
16845;SDS011;8539;53.188;8.696;2022-10-22T16:48:46;13.32;;;6.20;;
16845;SDS011;8539;53.188;8.696;2022-10-22T16:51:15;20.42;;;6.18;;
16845;SDS011;8539;53.188;8.696;2022-10-22T16:53:42;12.05;;;5.38;;
16845;SDS011;8539;53.188;8.696;2022-10-22T16:56:10;14.65;;;5.07;;
16845;SDS011;8539;53.188;8.696;2022-10-22T16:58:38;11.07;;;4.65;;
16845;SDS011;8539;53.188;8.696;2022-10-22T17:01:08;12.38;;;5.50;;
16845;SDS011;8539;53.188;8.696;2022-10-22T17:03:34;7.47;;;5.10;;
16845;SDS011;8539;53.188;8.696;2022-10-22T17:06:01;9.38;;;5.13;;
16845;SDS011;8539;53.188;8.696;2022-10-22T17:08:38;9.32;;;4.50;;
16845;SDS011;8539;53.188;8.696;2022-10-22T17:11:08;9.95;;;5.25;;
16845;SDS011;8539;53.188;8.696;2022-10-22T17:13:36;11.57;;;5.70;;
16845;SDS011;8539;53.188;8.696;2022-10-22T17:16:05;14.43;;;5.32;;
16845;SDS011;8539;53.188;8.696;2022-10-22T17:18:34;7.18;;;4.90;;
16845;SDS011;8539;53.188;8.696;2022-10-22T17:21:02;13.02;;;5.03;;
16845;SDS011;8539;53.188;8.696;2022-10-22T17:23:29;11.27;;;5.30;;
16845;SDS011;8539;53.188;8.696;2022-10-22T17:26:06;8.55;;;4.40;;
16845;SDS011;8539;53.188;8.696;2022-10-22T17:28:34;8.00;;;5.13;;
16845;SDS011;8539;53.188;8.696;2022-10-22T17:31:04;8.13;;;4.22;;
16845;SDS011;8539;53.188;8.696;2022-10-22T17:33:51;14.75;;;5.28;;
16845;SDS011;8539;53.188;8.696;2022-10-22T17:36:22;11.55;;;4.85;;
16845;SDS011;8539;53.188;8.696;2022-10-22T17:38:53;11.93;;;5.80;;
16845;SDS011;8539;53.188;8.696;2022-10-22T17:41:24;10.13;;;5.70;;
16845;SDS011;8539;53.188;8.696;2022-10-22T17:43:52;11.13;;;6.25;;
16845;SDS011;8539;53.188;8.696;2022-10-22T17:46:21;11.32;;;5.35;;
16845;SDS011;8539;53.188;8.696;2022-10-22T17:48:50;11.75;;;4.93;;
16845;SDS011;8539;53.188;8.696;2022-10-22T17:51:22;9.85;;;5.25;;
16845;SDS011;8539;53.188;8.696;2022-10-22T17:53:49;15.05;;;6.05;;
16845;SDS011;8539;53.188;8.696;2022-10-22T17:56:16;14.02;;;6.20;;
16845;SDS011;8539;53.188;8.696;2022-10-22T17:58:44;14.07;;;6.68;;
16845;SDS011;8539;53.188;8.696;2022-10-22T18:01:27;11.85;;;6.45;;
16845;SDS011;8539;53.188;8.696;2022-10-22T18:03:58;10.88;;;5.43;;
16845;SDS011;8539;53.188;8.696;2022-10-22T18:06:27;17.10;;;6.22;;